アシガバート の空港の天気 - METARとTAF

アシガバート空港 ( UTAA / ASB ) - トルクメニスタン アシガバート
飛行場実況気象(Metar)
観測時間01/18 14:00 TMT (01/18 09:00 UTC)
風向・風速北北西 2m/s
視程9000m
天気現象
全天の4割程度の雲 雲底高度 3050m
気温8℃
湿度57%
気圧1015hPa
METARUTAA 180900Z 34003KT 9000 SCT100 08/M00 Q1015 R88/70D NOSIG
過去の天気等 Google飛行場航空写真 Wunderground天気予報

過去48時間のMETAR

飛行場予報(TAF)
発表時間: 1/18 09:30 TMT (1/18 04:30 UTC)
予報対象時間: 18日10時 TMT ~ 19日11時 TMT
風向・風速東南東 8m/s
視程6,000m
全天の4割程度の雲 雲底高度 610m
18日10時 TMT ~ 18日12時 TMT に一時的に
風向・風速不定 2m/s
視程3,000m
天気現象もや
18日12時 TMT ~ 18日18時 TMT に一時的に
風向・風速北北東 7m/s
18日23時 TMT ~ 19日1時 TMT に徐々に
視程3,000m
天気現象もや
19日5時 TMT ~ 19日10時 TMT に一時的に
視程1,000m
天気現象もや
全天の8割程度の雲 雲底高度 90m
TAF UTAA 180430Z 1805/1906 12016KT 6000 SCT020 530009
TEMPO 1805/1807 VRB04KT 3000 BR
TEMPO 1807/1813 03014KT
BECMG 1818/1820 3000 BR
TEMPO 1900/1905 1000 BR BKN003